• Join FlightAware (Why Join?)
  • Login
  • US Flag 
04:27PM EDT


 

Airport Tracker/Info


-or-


 

Live Flight TrackerFlight Track Log ✈ DAL9933 ✈ 01-Jul-2013 ✈ KDTW - KBOS

Flight Track Log - Related Links

Times and Time Zones

All times are in EDT time to prevent confusion due to time zone crossing. See the DAL9933 flight status page for this flight to view local times or setup timezone preferences in your user account.

Time Position Orientation Groundspeed Altitude Reporting Facility
EDT Latitude Longitude Course Direction KTS MPH feet Rate Location/Type
06:24AM 42.2250 -83.3394 29° Northeast 129 148 2,300  Level Cleveland Center
06:25AM 42.2844 -83.2944 29° Northeast 247 284 5,500 3,300 Climbing Cleveland Center
06:26AM 42.3442 -83.2381 35° Northeast 283 326 9,700 3,360 Climbing Cleveland Center
06:27AM 42.3539 -83.1739 78° East 280 322 11,300 2,400 Climbing Cleveland Center
06:28AM 42.3547 -83.0389 89° East 311 358 13,800 3,000 Climbing Cleveland Center
06:29AM 42.3578 -82.8931 88° East 355 409 17,300 3,180 Climbing Cleveland Center
06:30AM 42.3608 -82.7356 88° East 391 450 20,200 2,820 Climbing Cleveland Center
06:31AM 42.3639 -82.5728 88° East 416 479 23,000 2,400 Climbing Cleveland Center
06:32AM 42.3644 -82.3986 90° East 438 504 25,100 1,860 Climbing Cleveland Center
06:33AM 42.3589 -82.2214 92° East 460 529 26,800 2,280 Climbing Cleveland Center
06:34AM 42.3511 -82.0217 93° East 476 548 29,700 2,460 Climbing Cleveland Center
06:35AM 42.3428 -81.8444 94° East 476 548 31,800 1,860 Climbing Cleveland Center
06:36AM 42.3361 -81.6703 93° East 476 548 33,500 1,800 Climbing Cleveland Center
06:37AM 42.3275 -81.4875 94° East 485 558 35,500 1,680 Climbing Cleveland Center
06:38AM 42.3181 -81.3244 94° East 485 558 36,900 720 Climbing Cleveland Center
06:39AM 42.3108 -81.1447 93° East 483 556 37,000  Climbing Cleveland Center
06:40AM 42.3011 -80.9622 94° East 483 556 37,000  Level Cleveland Center
06:41AM 42.2933 -80.7797 93° East 483 556 37,000  Level Cleveland Center
06:42AM 42.3058 -80.5972 85° East 477 549 37,000  Level Cleveland Center
06:43AM 42.3206 -80.4061 84° East 493 567 37,000  Level Cleveland Center
06:44AM 42.3408 -80.2039 82° East 500 575 37,000  Level Cleveland Center
06:45AM 42.3589 -80.0183 82° East 500 575 37,000  Level Cleveland Center
06:46AM 42.3725 -79.8525 84° East 500 575 37,000  Level Cleveland Center
06:47AM 42.3919 -79.6639 82° East 500 575 37,000  Level Cleveland Center
06:48AM 42.4092 -79.4753 83° East 500 575 37,000  Level Cleveland Center
06:49AM 42.4239 -79.2867 84° East 500 575 37,000  Level Cleveland Center
06:50AM 42.4403 -79.0975 83° East 500 575 37,000  Level Cleveland Center
06:51AM 42.4603 -78.8889 83° East 500 575 37,000  Level Cleveland Center
06:52AM 42.4742 -78.7000 84° East 500 575 37,000  Level Cleveland Center
06:53AM 42.4875 -78.5136 84° East 509 586 37,000  Level Cleveland Center
06:54AM 42.5028 -78.3244 84° East 504 580 37,000  Level Cleveland Center
06:55AM 42.5156 -78.1353 85° East 504 580 37,000  Level Cleveland Center
06:56AM 42.5281 -77.9461 85° East 504 580 37,000  Level Cleveland Center
06:57AM 42.5444 -77.7564 83° East 504 580 37,000  Level Cleveland Center
06:58AM 42.5583 -77.5642 84° East 504 580 37,000  Level Cleveland Center
07:00AM 42.5783 -77.1892 86° East 517 595 37,000  Level Boston Center
07:01AM 42.5922 -77.0014 84° East 517 595 37,000  Level Boston Center
07:02AM 42.6039 -76.8103 85° East 512 589 37,000  Level Boston Center
07:03AM 42.6153 -76.6219 85° East 512 589 37,000  Level Boston Center
07:04AM 42.6258 -76.4447 85° East 513 590 37,000  Level Boston Center
07:05AM 42.6397 -76.2197 85° East 513 590 37,000  Level Boston Center
07:06AM 42.6500 -76.0311 86° East 508 585 37,000  Level Boston Center
07:07AM 42.6575 -75.8564 87° East 508 585 37,000  Level Boston Center
07:08AM 42.6678 -75.6481 86° East 508 585 37,000  Level Boston Center
07:09AM 42.6767 -75.4733 86° East 514 592 37,000  Level Boston Center
07:10AM 42.6861 -75.2761 86° East 514 592 37,000  Level Boston Center
07:11AM 42.6947 -75.0844 86° East 514 592 37,000  Level Boston Center
07:12AM 42.7031 -74.8953 87° East 514 592 37,000  Level Boston Center
07:13AM 42.7114 -74.6978 87° East 514 592 37,000  Level Boston Center
07:14AM 42.7214 -74.5033 86° East 514 592 37,000  Level Boston Center
07:15AM 42.7289 -74.3111 87° East 514 592 37,000  Level Boston Center
07:16AM 42.7339 -74.1164 88° East 514 592 37,000  Level Boston Center
07:17AM 42.7408 -73.9214 87° East 514 592 37,000  Level Boston Center
07:18AM 42.7392 -73.7264 91° East 514 592 37,000  Level Boston Center
07:19AM 42.7261 -73.5622 96° East 502 578 37,000 -1,620 Level Boston Center
07:20AM 42.6992 -73.3356 99° East 496 571 33,800 -2,460 Descending Boston Center
07:21AM 42.6775 -73.1375 98° East 512 589 32,100 -1,620 Descending Boston Center
07:22AM 42.6556 -72.9397 99° East 518 596 30,600 -1,620 Descending Boston Center
07:23AM 42.6356 -72.7561 98° East 519 597 28,900 -2,040 Descending Boston Center
07:24AM 42.6336 -72.6067 91° East 506 582 26,600 -2,460 Descending Boston Center
07:25AM 42.6817 -72.4400 69° East 460 529 24,000 -2,820 Descending Boston Center
07:26AM 42.6692 -72.2622 95° East 438 504 21,000 -2,940 Descending Boston Center
07:27AM 42.6314 -72.1128 109° East 422 486 18,200 -2,400 Descending Boston Center
07:28AM 42.5975 -71.9775 109° East 395 455 16,200 -2,160 Descending Boston Center
07:29AM 42.5636 -71.8425 109° East 375 432 13,900 -2,100 Descending Boston Center
07:30AM 42.5336 -71.7272 109° East 365 420 12,000 -1,500 Descending Boston Center
07:31AM 42.5014 -71.5953 108° East 348 400 10,900 -540 Descending Boston Center
07:32AM 42.4944 -71.4969 95° East 299 344 11,000  Climbing Boston Center
07:33AM 42.4833 -71.4167 101° East 271 312 11,000 -600 Level KA90
07:34AM 42.4833 -71.3167 90° East 267 307 10,100 -1,080 Descending KA90
07:35AM 42.4667 -71.2333 105° East 264 304 9,000 -1,080 Descending KA90
07:36AM 42.4667 -71.1167 90° East 257 296 7,900 -1,020 Descending KA90
07:37AM 42.4500 -71.0333 105° East 252 290 7,000 -540 Descending KA90
07:38AM 42.4500 -70.9500 90° East 251 289 6,900 -900 Descending KA90
07:39AM 42.4667 -70.8500 77° East 246 283 5,200 -1,620 Descending KA90
07:40AM 42.4833 -70.7667 75° East 242 278 3,700 -1,140 Descending KA90
07:41AM 42.4667 -70.6833 105° East 223 257 3,000 -300 Descending KA90
07:42AM 42.4167 -70.7000 194° South 178 205 3,100  Climbing KA90
07:43AM 42.4000 -70.7500 246° West 168 193 3,000 -300 Descending KA90
07:44AM 42.4000 -70.8000 270° West 168 193 2,600 -600 Descending KA90
07:45AM 42.3833 -70.8667 251° West 168 193 1,800 -840 Descending KA90
07:46AM 42.3667 -70.9167 246° West 151 174 1,000 -660 Descending KA90
07:47AM 42.3667 -70.9667 270° West 114 131 500 -540 Descending KA90